createdAt,value
2023-04-16T00:03:31.104Z,8.96
2023-04-16T00:08:28.984Z,8.93
2023-04-16T00:13:31.358Z,8.91
2023-04-16T00:18:29.771Z,8.9
2023-04-16T00:23:29.799Z,8.87
2023-04-16T00:28:31.405Z,8.86
2023-04-16T00:33:31.200Z,8.84
2023-04-16T00:38:32.837Z,8.81
2023-04-16T00:43:32.367Z,8.81
2023-04-16T00:48:29.557Z,8.8
2023-04-16T00:53:31.975Z,8.77
2023-04-16T00:58:31.298Z,8.77
2023-04-16T01:03:39.861Z,8.76
2023-04-16T01:08:29.390Z,8.74
2023-04-16T01:13:30.810Z,8.73
2023-04-16T01:18:34.925Z,8.73
2023-04-16T01:23:31.038Z,8.73
2023-04-16T01:28:31.133Z,8.72
2023-04-16T01:33:28.783Z,8.72
2023-04-16T01:38:29.211Z,8.69
2023-04-16T01:43:37.227Z,8.68
2023-04-16T01:48:30.097Z,8.7
2023-04-16T01:53:28.962Z,8.68
2023-04-16T01:58:30.846Z,8.66
2023-04-16T02:03:28.844Z,8.66
2023-04-16T02:08:29.792Z,8.67
2023-04-16T02:13:31.226Z,8.71
2023-04-16T02:18:28.906Z,8.67
2023-04-16T02:23:28.704Z,8.66
2023-04-16T02:28:29.451Z,8.69
2023-04-16T02:33:32.299Z,8.66
2023-04-16T02:38:28.955Z,8.64
2023-04-16T02:43:29.857Z,8.64
2023-04-16T02:48:29.158Z,8.63
2023-04-16T02:53:29.020Z,8.61
2023-04-16T02:58:28.977Z,8.64
2023-04-16T03:03:29.150Z,8.6
2023-04-16T03:08:28.799Z,8.58
2023-04-16T03:13:31.289Z,8.6
2023-04-16T03:18:31.398Z,8.62
2023-04-16T03:23:29.850Z,8.58
2023-04-16T03:28:29.938Z,8.63
2023-04-16T03:33:29.506Z,8.59
2023-04-16T03:38:31.024Z,8.61
2023-04-16T03:43:28.845Z,8.58
2023-04-16T03:48:28.839Z,8.55
2023-04-16T03:53:28.780Z,8.59
2023-04-16T03:58:28.654Z,8.57
2023-04-16T04:03:30.466Z,8.56
2023-04-16T04:08:28.909Z,8.54
2023-04-16T04:13:30.870Z,8.55
2023-04-16T04:18:30.888Z,8.53
2023-04-16T04:23:28.842Z,8.55
2023-04-16T04:28:28.630Z,8.53
2023-04-16T04:33:30.614Z,8.52
2023-04-16T04:38:30.188Z,8.52
2023-04-16T04:43:30.502Z,8.52
2023-04-16T04:48:29.793Z,8.53
2023-04-16T04:53:31.776Z,8.54
2023-04-16T04:58:29.268Z,8.55
2023-04-16T05:03:29.066Z,8.52
2023-04-16T05:08:28.860Z,8.54
2023-04-16T05:13:30.434Z,8.51
2023-04-16T05:18:31.137Z,8.56
2023-04-16T05:23:29.110Z,8.5
2023-04-16T05:28:28.743Z,8.49
2023-04-16T05:33:29.791Z,8.52
2023-04-16T05:38:31.232Z,8.53
2023-04-16T05:43:28.484Z,8.53
2023-04-16T05:53:30.015Z,8.57
2023-04-16T05:58:27.747Z,8.53
2023-04-16T06:03:29.210Z,8.52
2023-04-16T06:08:29.664Z,8.56
2023-04-16T06:13:27.683Z,8.55
2023-04-16T06:18:27.793Z,8.57
2023-04-16T06:23:29.861Z,8.53
2023-04-16T06:28:27.610Z,8.55
2023-04-16T06:33:27.552Z,8.57
2023-04-16T06:38:28.371Z,8.61
2023-04-16T06:43:27.486Z,8.66
2023-04-16T06:48:27.551Z,8.63
2023-04-16T06:53:27.469Z,8.61
2023-04-16T06:58:27.617Z,8.63
2023-04-16T07:03:27.771Z,8.65
2023-04-16T07:08:27.630Z,8.65
2023-04-16T07:13:27.867Z,8.69
2023-04-16T07:18:32.735Z,8.68
2023-04-16T07:23:27.960Z,8.7
2023-04-16T07:28:29.614Z,8.73
2023-04-16T07:33:28.672Z,8.73
2023-04-16T07:38:30.368Z,8.75
2023-04-16T07:43:27.636Z,8.77
2023-04-16T07:48:29.059Z,8.79
2023-04-16T07:53:29.262Z,8.8
2023-04-16T07:58:29.973Z,8.86
2023-04-16T08:03:27.945Z,8.86
2023-04-16T08:08:27.547Z,8.87
2023-04-16T08:13:33.109Z,8.89
2023-04-16T08:18:28.381Z,8.92
2023-04-16T08:23:27.758Z,8.95
2023-04-16T08:28:29.948Z,8.99
2023-04-16T08:33:27.732Z,9.07
2023-04-16T08:38:27.642Z,9.07
2023-04-16T08:43:27.738Z,9.12
2023-04-16T08:48:29.897Z,9.17
2023-04-16T08:53:32.337Z,9.22
2023-04-16T08:58:28.509Z,9.25
2023-04-16T09:03:30.032Z,9.29
2023-04-16T09:08:27.554Z,9.33
2023-04-16T09:13:27.839Z,9.38
2023-04-16T09:18:29.206Z,9.45
2023-04-16T09:23:29.314Z,9.51
2023-04-16T09:28:38.343Z,9.55
2023-04-16T09:33:27.525Z,9.62
2023-04-16T09:38:28.561Z,9.67
2023-04-16T09:43:27.849Z,9.71
2023-04-16T09:48:36.470Z,9.71
2023-04-16T09:53:36.877Z,9.75
2023-04-16T09:58:28.334Z,9.78
2023-04-16T10:03:34.874Z,9.82
2023-04-16T10:08:28.172Z,9.87
2023-04-16T10:13:28.554Z,9.91
2023-04-16T10:18:27.872Z,9.96
2023-04-16T10:23:27.747Z,10.02
2023-04-16T10:28:29.928Z,10.06
2023-04-16T10:33:28.908Z,10.08
2023-04-16T10:38:30.760Z,10.11
2023-04-16T10:43:29.600Z,10.15
2023-04-16T10:48:35.602Z,10.18
2023-04-16T10:53:29.690Z,10.2
2023-04-16T10:58:39.101Z,10.25
2023-04-16T11:03:27.785Z,10.36
2023-04-16T11:08:27.408Z,10.5
2023-04-16T11:13:30.431Z,10.65
2023-04-16T11:18:27.582Z,10.75
2023-04-16T11:23:27.522Z,10.83
2023-04-16T11:28:35.956Z,10.92
2023-04-16T11:33:29.362Z,10.97
2023-04-16T11:38:36.597Z,11
2023-04-16T11:43:30.328Z,11.02
2023-04-16T11:48:29.986Z,11.05
2023-04-16T11:53:27.536Z,11.15
2023-04-16T11:58:29.472Z,11.3
2023-04-16T12:03:37.570Z,11.45
2023-04-16T12:08:36.348Z,11.59
2023-04-16T12:13:28.616Z,11.74
2023-04-16T12:18:30.973Z,11.87
2023-04-16T12:23:34.204Z,11.99
2023-04-16T12:28:40.765Z,12.09
2023-04-16T12:33:27.516Z,12.13
2023-04-16T12:38:27.560Z,12.15
2023-04-16T12:43:27.799Z,12.15
2023-04-16T12:48:27.534Z,12.24
2023-04-16T12:53:27.548Z,12.3
2023-04-16T12:58:27.410Z,12.37
2023-04-16T13:03:30.170Z,12.42
2023-04-16T13:08:27.442Z,12.46
2023-04-16T13:13:27.546Z,12.5
2023-04-16T13:18:29.182Z,12.52
2023-04-16T13:23:27.746Z,12.53
2023-04-16T13:28:27.377Z,12.5
2023-04-16T13:33:27.430Z,12.53
2023-04-16T13:38:27.598Z,12.54
2023-04-16T13:43:28.673Z,12.56
2023-04-16T13:48:27.468Z,12.57
2023-04-16T13:53:27.212Z,12.58
2023-04-16T13:58:27.474Z,12.56
2023-04-16T14:03:29.004Z,12.59
2023-04-16T14:08:27.489Z,12.67
2023-04-16T14:13:27.597Z,12.71
2023-04-16T14:18:28.535Z,12.71
2023-04-16T14:23:27.274Z,12.75
2023-04-16T14:28:27.626Z,12.75
2023-04-16T14:33:28.198Z,12.76
2023-04-16T14:38:30.112Z,12.72
2023-04-16T14:43:27.761Z,12.68
2023-04-16T14:48:27.481Z,12.66
2023-04-16T14:53:29.396Z,12.61
2023-04-16T14:58:27.539Z,12.54
2023-04-16T15:03:28.493Z,12.5
2023-04-16T15:08:27.562Z,12.46
2023-04-16T15:13:33.684Z,12.41
2023-04-16T15:18:27.557Z,12.37
2023-04-16T15:23:27.835Z,12.35
2023-04-16T15:28:39.076Z,12.32
2023-04-16T15:33:30.588Z,12.34
2023-04-16T15:38:29.691Z,12.36
2023-04-16T15:43:30.715Z,12.36
2023-04-16T15:48:27.565Z,12.37
2023-04-16T15:53:27.452Z,12.35
2023-04-16T15:58:27.538Z,12.34
2023-04-16T16:03:28.112Z,12.3
2023-04-16T16:08:30.098Z,12.24
2023-04-16T16:13:27.555Z,12.18
2023-04-16T16:18:36.365Z,12.11
2023-04-16T16:23:27.562Z,12.06
2023-04-16T16:28:30.230Z,11.99
2023-04-16T16:33:28.565Z,11.91
2023-04-16T16:38:30.080Z,11.81
2023-04-16T16:43:29.484Z,11.72
2023-04-16T16:48:27.624Z,11.64
2023-04-16T16:53:27.466Z,11.59
2023-04-16T16:58:27.587Z,11.51
2023-04-16T17:03:29.161Z,11.45
2023-04-16T17:08:29.509Z,11.38
2023-04-16T17:13:27.411Z,11.32
2023-04-16T17:18:29.767Z,11.25
2023-04-16T17:23:29.828Z,11.17
2023-04-16T17:28:28.844Z,11.11
2023-04-16T17:33:28.276Z,11.04
2023-04-16T17:38:27.406Z,11
2023-04-16T17:43:28.689Z,10.96
2023-04-16T17:48:29.685Z,10.93
2023-04-16T17:53:27.030Z,10.89
2023-04-16T17:58:27.520Z,10.83
2023-04-16T18:03:30.428Z,10.8
2023-04-16T18:08:27.656Z,10.74
2023-04-16T18:13:27.601Z,10.7
2023-04-16T18:18:27.673Z,10.64
2023-04-16T18:23:27.992Z,10.57
2023-04-16T18:28:30.060Z,10.52
2023-04-16T18:33:50.126Z,10.46
2023-04-16T18:38:27.040Z,10.41
2023-04-16T18:43:27.828Z,10.36
2023-04-16T18:48:28.446Z,10.31
2023-04-16T18:53:27.559Z,10.26
2023-04-16T18:58:27.583Z,10.19
2023-04-16T19:03:29.873Z,10.12
2023-04-16T19:08:27.480Z,10.07
2023-04-16T19:18:07.048Z,9.98
2023-04-16T19:23:09.912Z,9.96
2023-04-16T19:28:07.059Z,9.92
2023-04-16T19:33:09.209Z,9.88
2023-04-16T19:38:10.300Z,9.84
2023-04-16T19:43:07.631Z,9.8
2023-04-16T19:48:12.794Z,9.74
2023-04-16T19:53:07.033Z,9.72
2023-04-16T19:58:11.550Z,9.7
2023-04-16T20:03:08.685Z,9.65
2023-04-16T20:08:10.168Z,9.62
2023-04-16T20:13:11.589Z,9.59
2023-04-16T20:18:10.608Z,9.56
2023-04-16T20:23:09.378Z,9.52
2023-04-16T20:28:10.686Z,9.48
2023-04-16T20:33:10.465Z,9.44
2023-04-16T20:38:07.250Z,9.4
2023-04-16T20:43:10.457Z,9.37
2023-04-16T20:48:09.966Z,9.35
2023-04-16T20:53:07.005Z,9.31
2023-04-16T20:58:09.052Z,9.28
2023-04-16T21:03:07.423Z,9.26
2023-04-16T21:08:08.517Z,9.21
2023-04-16T21:13:07.039Z,9.19
2023-04-16T21:18:07.051Z,9.15
2023-04-16T21:23:08.967Z,9.12
2023-04-16T21:28:09.705Z,9.1
2023-04-16T21:33:06.636Z,9.08
2023-04-16T21:38:15.083Z,9.06
2023-04-16T21:43:09.405Z,9.03
2023-04-16T21:48:07.158Z,9.01
2023-04-16T21:53:10.088Z,8.98
2023-04-16T21:58:07.028Z,8.93
2023-04-16T22:03:09.414Z,8.91
2023-04-16T22:08:23.319Z,8.89
2023-04-16T22:13:13.015Z,8.86
2023-04-16T22:18:09.790Z,8.82
2023-04-16T22:23:07.144Z,8.8
2023-04-16T22:28:07.732Z,8.79
2023-04-16T22:33:07.683Z,8.77
2023-04-16T22:38:08.399Z,8.75
2023-04-16T22:43:10.944Z,8.73
2023-04-16T22:48:07.062Z,8.72
2023-04-16T22:53:06.842Z,8.7
2023-04-16T22:58:07.085Z,8.67
2023-04-16T23:03:09.528Z,8.66
2023-04-16T23:08:07.004Z,8.66
2023-04-16T23:13:07.402Z,8.65
2023-04-16T23:18:07.143Z,8.62
2023-04-16T23:23:08.830Z,8.59
2023-04-16T23:28:07.096Z,8.57
2023-04-16T23:33:09.938Z,8.57
2023-04-16T23:38:09.599Z,8.55
2023-04-16T23:43:07.477Z,8.53
2023-04-16T23:48:08.865Z,8.52
2023-04-16T23:53:07.008Z,8.52
2023-04-16T23:58:10.502Z,8.5
